Time;durP1;ratioP1;P1;durP2;ratioP2;P2;SDS_P1;SDS_P2;PMS_P1;PMS_P2;Temp;Humidity;BMP_temperature;BMP_pressure;BME280_temperature;BME280_humidity;BME280_pressure;Samples;Min_cycle;Max_cycle;Signal;HPM_P1;HPM_P2
2021/06/01 00:02:54;;;;;;;5.47;2.40;;;;;;;;;;13066833;22;20220;-77
2021/06/01 00:07:56;;;;;;;6.40;2.90;;;;;;;;;;13092886;22;20180;-76
2021/06/01 00:13:00;;;;;;;4.70;2.73;;;;;;;;;;13092218;22;20172;-75
2021/06/01 00:18:02;;;;;;;4.97;2.70;;;;;;;;;;13089684;22;20451;-76
2021/06/01 00:23:05;;;;;;;6.67;2.90;;;;;;;;;;13095020;22;20209;-76
2021/06/01 00:28:08;;;;;;;3.37;2.53;;;;;;;;;;13081880;22;20189;-76
2021/06/01 00:33:11;;;;;;;4.90;2.50;;;;;;;;;;13091141;22;20177;-76
2021/06/01 00:38:13;;;;;;;5.43;2.60;;;;;;;;;;13089157;22;20168;-75
2021/06/01 00:43:17;;;;;;;3.67;2.30;;;;;;;;;;13090762;22;20497;-76
2021/06/01 00:48:19;;;;;;;3.80;2.40;;;;;;;;;;13065732;22;20172;-76
2021/06/01 00:53:22;;;;;;;3.37;2.30;;;;;;;;;;13068761;22;20193;-76
2021/06/01 00:58:25;;;;;;;3.17;2.23;;;;;;;;;;13093154;22;20664;-76
2021/06/01 01:03:28;;;;;;;3.40;2.40;;;;;;;;;;13074316;22;20204;-76
2021/06/01 01:08:46;;;;;;;3.33;2.30;;;;;;;;;;13075596;22;20212;-76
2021/06/01 01:13:53;;;;;;;3.13;2.23;;;;;;;;;;13098285;22;20172;-77
2021/06/01 01:18:58;;;;;;;2.73;2.00;;;;;;;;;;13066982;22;20179;-77
2021/06/01 01:24:08;;;;;;;2.37;2.07;;;;;;;;;;13075144;22;20212;-77
2021/06/01 01:29:14;;;;;;;4.40;2.33;;;;;;;;;;13092702;22;20187;-77
2021/06/01 01:34:19;;;;;;;2.70;2.07;;;;;;;;;;13094176;22;20181;-77
2021/06/01 01:39:22;;;;;;;4.53;2.10;;;;;;;;;;13100685;22;20614;-75
2021/06/01 01:44:25;;;;;;;3.40;2.10;;;;;;;;;;13095851;22;20200;-76
2021/06/01 01:49:29;;;;;;;3.20;2.10;;;;;;;;;;13095852;22;20633;-76
2021/06/01 01:54:32;;;;;;;3.33;2.00;;;;;;;;;;13083376;22;20203;-77
2021/06/01 01:59:34;;;;;;;4.97;2.30;;;;;;;;;;13077616;22;20180;-77
2021/06/01 02:04:38;;;;;;;4.20;2.20;;;;;;;;;;13071996;22;20416;-76
2021/06/01 02:09:42;;;;;;;3.33;2.13;;;;;;;;;;13098146;22;20169;-76
2021/06/01 02:14:44;;;;;;;5.23;2.40;;;;;;;;;;13096680;22;20218;-76
2021/06/01 02:19:48;;;;;;;2.73;2.17;;;;;;;;;;13071484;22;20177;-77
2021/06/01 02:24:53;;;;;;;4.60;2.20;;;;;;;;;;13074348;22;20371;-77
2021/06/01 02:30:02;;;;;;;3.63;2.30;;;;;;;;;;13076053;22;20181;-76
2021/06/01 02:35:08;;;;;;;3.63;2.17;;;;;;;;;;13093869;22;20168;-76
2021/06/01 02:40:11;;;;;;;4.60;2.10;;;;;;;;;;13098687;22;20649;-77
2021/06/01 02:45:15;;;;;;;3.53;2.13;;;;;;;;;;13072029;22;20185;-77
2021/06/01 02:50:19;;;;;;;9.13;2.50;;;;;;;;;;13071776;22;20177;-76
2021/06/01 02:55:21;;;;;;;4.63;2.50;;;;;;;;;;13071347;22;20673;-77
2021/06/01 03:00:25;;;;;;;2.67;2.13;;;;;;;;;;13073517;22;20184;-76
2021/06/01 03:05:30;;;;;;;4.53;2.40;;;;;;;;;;13091880;22;20173;-76
2021/06/01 03:10:32;;;;;;;3.23;2.30;;;;;;;;;;13074466;22;20180;-77
2021/06/01 03:15:34;;;;;;;3.33;2.20;;;;;;;;;;13076014;22;20173;-76
2021/06/01 03:20:38;;;;;;;3.40;2.30;;;;;;;;;;13073791;22;20670;-76
2021/06/01 03:25:41;;;;;;;6.43;2.50;;;;;;;;;;13094331;22;20180;-76
2021/06/01 03:30:43;;;;;;;3.33;2.30;;;;;;;;;;13073740;22;20189;-75
2021/06/01 03:35:48;;;;;;;12.37;2.30;;;;;;;;;;13075977;22;20256;-76
2021/06/01 03:40:50;;;;;;;4.67;2.27;;;;;;;;;;13074929;22;20653;-76
2021/06/01 03:45:52;;;;;;;5.77;2.60;;;;;;;;;;13074609;22;20818;-76
2021/06/01 03:50:56;;;;;;;3.43;2.40;;;;;;;;;;13093063;22;20177;-76
2021/06/01 03:55:58;;;;;;;3.10;2.30;;;;;;;;;;13074902;22;20195;-78
2021/06/01 04:01:00;;;;;;;3.23;2.30;;;;;;;;;;13070801;22;20197;-77
2021/06/01 04:06:05;;;;;;;5.93;2.30;;;;;;;;;;13076451;22;20204;-83
2021/06/01 04:11:09;;;;;;;4.03;2.70;;;;;;;;;;13094236;22;20176;-82
2021/06/01 04:16:13;;;;;;;4.27;2.70;;;;;;;;;;13095090;22;20185;-82
2021/06/01 04:21:18;;;;;;;4.97;2.60;;;;;;;;;;13095934;22;20201;-83
2021/06/01 04:26:21;;;;;;;4.10;2.63;;;;;;;;;;13095962;22;20844;-81
2021/06/01 04:31:27;;;;;;;7.30;2.70;;;;;;;;;;13089670;22;20173;-82
2021/06/01 04:36:33;;;;;;;5.13;2.73;;;;;;;;;;13099887;22;20183;-82
2021/06/01 04:41:38;;;;;;;5.77;2.40;;;;;;;;;;13098775;22;20244;-82
2021/06/01 04:46:41;;;;;;;3.83;2.60;;;;;;;;;;13099691;22;21126;-82
2021/06/01 04:52:02;;;;;;;10.17;2.87;;;;;;;;;;13076954;22;20217;-81
2021/06/01 04:57:05;;;;;;;5.77;2.73;;;;;;;;;;13076465;22;20679;-77
2021/06/01 05:02:09;;;;;;;7.80;3.00;;;;;;;;;;13076116;22;20209;-77
2021/06/01 05:07:13;;;;;;;4.47;2.83;;;;;;;;;;13103288;22;20180;-75
2021/06/01 05:12:15;;;;;;;4.10;2.63;;;;;;;;;;13097869;22;20169;-83
2021/06/01 05:17:17;;;;;;;7.17;2.90;;;;;;;;;;13097451;22;20185;-77
2021/06/01 05:22:21;;;;;;;4.73;2.77;;;;;;;;;;13099018;22;20752;-77
2021/06/01 05:27:24;;;;;;;8.10;3.00;;;;;;;;;;13078575;22;20665;-75
2021/06/01 05:32:59;;;;;;;4.40;2.83;;;;;;;;;;13076692;22;20165;-76
2021/06/01 05:38:03;;;;;;;5.13;3.13;;;;;;;;;;13079271;22;20594;-82
2021/06/01 05:43:07;;;;;;;5.70;2.97;;;;;;;;;;13099457;22;20231;-74
2021/06/01 05:48:10;;;;;;;3.80;2.80;;;;;;;;;;13076607;22;20173;-74
2021/06/01 05:53:15;;;;;;;7.60;3.67;;;;;;;;;;13078767;22;20200;-74
2021/06/01 05:58:18;;;;;;;8.50;3.20;;;;;;;;;;13078820;22;20177;-74
2021/06/01 06:03:20;;;;;;;6.63;3.07;;;;;;;;;;13078713;22;20841;-74
2021/06/01 06:08:24;;;;;;;4.13;2.70;;;;;;;;;;13078072;22;20184;-74
2021/06/01 06:13:26;;;;;;;5.57;2.90;;;;;;;;;;13080189;22;20180;-74
2021/06/01 06:18:33;;;;;;;3.83;2.43;;;;;;;;;;13099103;22;20191;-74
2021/06/01 06:23:40;;;;;;;5.27;2.50;;;;;;;;;;13101769;22;20207;-74
2021/06/01 06:28:42;;;;;;;4.17;2.53;;;;;;;;;;13086295;22;20609;-75
2021/06/01 06:33:44;;;;;;;4.10;2.67;;;;;;;;;;13076608;22;20175;-74
2021/06/01 06:38:48;;;;;;;4.67;2.40;;;;;;;;;;13078609;22;20184;-74
2021/06/01 06:43:53;;;;;;;6.23;2.50;;;;;;;;;;13100230;22;20201;-74
2021/06/01 06:48:57;;;;;;;4.37;2.80;;;;;;;;;;13097368;22;20769;-74
2021/06/01 06:54:01;;;;;;;6.57;3.10;;;;;;;;;;13078467;22;20196;-75
2021/06/01 06:59:03;;;;;;;3.33;2.30;;;;;;;;;;13098638;22;20669;-73
2021/06/01 07:04:05;;;;;;;3.97;2.40;;;;;;;;;;13098614;22;20197;-75
2021/06/01 07:09:09;;;;;;;5.47;2.50;;;;;;;;;;13078513;22;20168;-72
2021/06/01 07:14:24;;;;;;;4.13;2.10;;;;;;;;;;13101254;22;20168;-73
2021/06/01 07:19:27;;;;;;;4.30;2.60;;;;;;;;;;13085725;22;20176;-73
2021/06/01 07:24:31;;;;;;;4.67;2.53;;;;;;;;;;13100203;22;20189;-73
2021/06/01 07:29:33;;;;;;;4.47;2.30;;;;;;;;;;13082174;22;20185;-73
2021/06/01 07:34:36;;;;;;;2.83;2.30;;;;;;;;;;13097464;22;20219;-72
2021/06/01 07:39:39;;;;;;;4.70;2.30;;;;;;;;;;13100961;22;20169;-73
2021/06/01 07:44:42;;;;;;;3.17;2.20;;;;;;;;;;13078148;22;20211;-74
2021/06/01 07:49:44;;;;;;;5.57;2.23;;;;;;;;;;13076233;22;20173;-74
2021/06/01 07:54:48;;;;;;;4.00;2.27;;;;;;;;;;13083731;22;20196;-74
2021/06/01 07:59:50;;;;;;;4.83;2.30;;;;;;;;;;13075671;22;20571;-74
2021/06/01 08:04:54;;;;;;;3.50;2.20;;;;;;;;;;13097719;22;20215;-75
2021/06/01 08:09:58;;;;;;;3.20;2.27;;;;;;;;;;13088078;22;20177;-75
2021/06/01 08:15:00;;;;;;;6.50;3.03;;;;;;;;;;13073860;22;20173;-74
2021/06/01 08:20:11;;;;;;;4.37;2.70;;;;;;;;;;13077427;22;20193;-74
2021/06/01 08:25:14;;;;;;;3.87;2.90;;;;;;;;;;13074631;22;20775;-73
2021/06/01 08:30:18;;;;;;;5.33;2.63;;;;;;;;;;13076136;22;20208;-74
2021/06/01 08:35:20;;;;;;;4.60;2.43;;;;;;;;;;13075739;22;20591;-73
2021/06/01 08:40:24;;;;;;;5.33;2.43;;;;;;;;;;13099140;22;20184;-73
2021/06/01 08:45:26;;;;;;;5.87;2.00;;;;;;;;;;13098745;22;20203;-75
2021/06/01 08:50:29;;;;;;;2.40;1.90;;;;;;;;;;13094592;22;20179;-74
2021/06/01 08:55:32;;;;;;;3.50;2.33;;;;;;;;;;13080906;22;20649;-74
2021/06/01 09:00:35;;;;;;;4.43;2.23;;;;;;;;;;13097519;22;20542;-74
2021/06/01 09:05:39;;;;;;;4.60;2.23;;;;;;;;;;13075989;22;20205;-74
2021/06/01 09:10:57;;;;;;;3.30;2.17;;;;;;;;;;13078736;22;20180;-73
2021/06/01 09:21:18;;;;;;;2.60;2.10;;;;;;;;;;13073769;22;20176;-75
2021/06/01 09:26:48;;;;;;;3.13;2.23;;;;;;;;;;13080982;22;20679;-75
2021/06/01 09:32:03;;;;;;;3.63;2.30;;;;;;;;;;13099684;22;20166;-74
2021/06/01 09:37:18;;;;;;;3.93;2.40;;;;;;;;;;13103832;22;20264;-73
2021/06/01 09:42:25;;;;;;;4.70;2.23;;;;;;;;;;13100834;22;20188;-76
2021/06/01 09:47:40;;;;;;;3.23;1.97;;;;;;;;;;13101957;22;20165;-74
2021/06/01 09:52:46;;;;;;;3.33;2.53;;;;;;;;;;13095228;22;20192;-73
2021/06/01 09:57:50;;;;;;;3.37;2.40;;;;;;;;;;13090937;22;20173;-74
2021/06/01 10:02:56;;;;;;;3.80;2.30;;;;;;;;;;13075828;22;20766;-74
2021/06/01 10:07:59;;;;;;;3.80;2.30;;;;;;;;;;13104461;22;20165;-75
2021/06/01 10:13:03;;;;;;;3.27;2.10;;;;;;;;;;13101524;22;20672;-74
2021/06/01 10:18:07;;;;;;;7.03;2.20;;;;;;;;;;13079018;22;20173;-72
2021/06/01 10:23:09;;;;;;;4.93;2.73;;;;;;;;;;13081051;22;20232;-72
2021/06/01 10:28:15;;;;;;;3.77;2.20;;;;;;;;;;13079594;22;20183;-73
2021/06/01 10:33:18;;;;;;;2.90;2.20;;;;;;;;;;13099890;22;20622;-73
2021/06/01 10:44:19;;;;;;;3.70;2.10;;;;;;;;;;13084556;22;20205;-74
2021/06/01 10:55:00;;;;;;;4.80;2.43;;;;;;;;;;13086830;22;20200;-74
2021/06/01 11:06:03;;;;;;;3.17;2.20;;;;;;;;;;13076216;22;20211;-74
2021/06/01 11:11:24;;;;;;;4.40;2.50;;;;;;;;;;13043716;22;20172;-73
2021/06/01 11:16:48;;;;;;;2.70;2.10;;;;;;;;;;13076248;22;20172;-73
2021/06/01 11:21:58;;;;;;;3.47;1.90;;;;;;;;;;13079971;22;20180;-73
2021/06/01 14:10:13;;;;;;;2.90;1.70;;;;;;;;;;13053294;22;20173;-73
2021/06/01 14:15:32;;;;;;;2.80;1.80;;;;;;;;;;13100064;22;20640;-73
2021/06/01 14:31:51;;;;;;;2.80;1.90;;;;;;;;;;13007216;22;20211;-73
2021/06/01 15:52:33;;;;;;;2.93;2.13;;;;;;;;;;13093976;22;20545;-74
2021/06/01 16:13:47;;;;;;;4.03;2.20;;;;;;;;;;13096837;22;20207;-73
2021/06/01 16:29:47;;;;;;;3.23;2.00;;;;;;;;;;13099742;22;20175;-72
2021/06/01 17:07:05;;;;;;;2.30;1.97;;;;;;;;;;13084827;22;20542;-74
2021/06/01 17:12:09;;;;;;;2.50;1.83;;;;;;;;;;13071625;22;20168;-72
2021/06/01 17:17:15;;;;;;;3.57;2.00;;;;;;;;;;13091920;22;20261;-73
2021/06/01 17:22:30;;;;;;;3.00;2.00;;;;;;;;;;13075085;22;20207;-73
2021/06/01 17:38:17;;;;;;;2.17;1.80;;;;;;;;;;13095559;22;20172;-73
2021/06/01 17:43:21;;;;;;;2.87;2.10;;;;;;;;;;13077616;22;20197;-73
2021/06/01 17:53:49;;;;;;;1.80;1.70;;;;;;;;;;13072514;22;20584;-74
2021/06/01 17:58:52;;;;;;;3.27;1.90;;;;;;;;;;13078164;22;20187;-74
2021/06/01 18:03:59;;;;;;;3.07;2.00;;;;;;;;;;13077388;22;20203;-73
2021/06/01 18:09:09;;;;;;;2.47;1.90;;;;;;;;;;13078558;22;20196;-74
2021/06/01 19:05:59;;;;;;;4.87;2.27;;;;;;;;;;13098047;22;20176;-74
2021/06/01 19:24:23;;;;;;;2.30;1.90;;;;;;;;;;13103284;22;20272;-73
2021/06/01 19:51:06;;;;;;;4.70;2.30;;;;;;;;;;13098797;22;20195;-74
2021/06/01 19:56:10;;;;;;;3.17;2.00;;;;;;;;;;13079848;22;20910;-74
2021/06/01 20:01:13;;;;;;;2.53;1.90;;;;;;;;;;13100064;22;20238;-73
2021/06/01 20:06:15;;;;;;;3.07;2.20;;;;;;;;;;13079171;22;20208;-73
2021/06/01 20:11:19;;;;;;;4.23;2.30;;;;;;;;;;13102097;22;20177;-73
2021/06/01 20:16:25;;;;;;;3.77;2.00;;;;;;;;;;13065136;22;20173;-73
2021/06/01 20:21:27;;;;;;;5.33;2.40;;;;;;;;;;13090773;22;20251;-79
2021/06/01 20:26:31;;;;;;;3.50;2.20;;;;;;;;;;13090800;22;20199;-77
2021/06/01 20:31:38;;;;;;;4.57;2.50;;;;;;;;;;13092834;22;20177;-77
2021/06/01 20:36:41;;;;;;;3.87;2.30;;;;;;;;;;13093529;22;20172;-72
2021/06/01 20:41:46;;;;;;;6.57;2.43;;;;;;;;;;13094198;22;20483;-73
2021/06/01 20:46:49;;;;;;;8.23;2.60;;;;;;;;;;13088247;22;20235;-74
2021/06/01 20:51:52;;;;;;;7.20;2.57;;;;;;;;;;13093262;22;20201;-73
2021/06/01 20:56:56;;;;;;;8.80;2.60;;;;;;;;;;13090503;22;20176;-74
2021/06/01 21:01:59;;;;;;;3.43;2.37;;;;;;;;;;13090099;22;20168;-74
2021/06/01 21:07:01;;;;;;;3.63;2.53;;;;;;;;;;13091708;22;20591;-72
2021/06/01 21:12:06;;;;;;;4.60;2.60;;;;;;;;;;13071382;22;20181;-72
2021/06/01 21:17:09;;;;;;;4.00;2.77;;;;;;;;;;13070985;22;20188;-73
2021/06/01 21:22:11;;;;;;;4.10;2.37;;;;;;;;;;13096778;22;21045;-72
2021/06/01 21:27:16;;;;;;;4.63;3.10;;;;;;;;;;13072661;22;20204;-74
2021/06/01 21:32:24;;;;;;;6.13;2.80;;;;;;;;;;13072137;22;20173;-73
2021/06/01 21:37:27;;;;;;;2.90;2.60;;;;;;;;;;13095683;22;20172;-72
2021/06/01 21:42:34;;;;;;;6.07;2.80;;;;;;;;;;13100544;22;20161;-72
2021/06/01 21:47:38;;;;;;;4.37;2.60;;;;;;;;;;13095390;22;20189;-73
2021/06/01 21:52:42;;;;;;;6.03;2.63;;;;;;;;;;13090790;22;20201;-72
2021/06/01 21:57:46;;;;;;;3.90;2.53;;;;;;;;;;13094627;22;20185;-72
2021/06/01 22:02:49;;;;;;;10.07;3.00;;;;;;;;;;13094481;22;20176;-72
2021/06/01 22:07:53;;;;;;;5.20;3.03;;;;;;;;;;13079708;22;20624;-73
2021/06/01 22:12:57;;;;;;;4.93;2.70;;;;;;;;;;13097656;22;20173;-73
2021/06/01 22:17:59;;;;;;;5.00;2.90;;;;;;;;;;13093463;22;20495;-74
2021/06/01 22:23:03;;;;;;;5.50;3.17;;;;;;;;;;13098744;22;20657;-73
2021/06/01 22:28:06;;;;;;;5.97;2.90;;;;;;;;;;13075219;22;20247;-74
2021/06/01 22:33:09;;;;;;;4.30;3.00;;;;;;;;;;13072269;22;20179;-72
2021/06/01 22:38:11;;;;;;;4.70;2.97;;;;;;;;;;13076623;22;20605;-72
2021/06/01 22:43:15;;;;;;;4.83;3.17;;;;;;;;;;13074622;22;20251;-73
2021/06/01 22:48:19;;;;;;;4.03;2.80;;;;;;;;;;13092266;22;20203;-72
2021/06/01 22:53:24;;;;;;;5.70;3.20;;;;;;;;;;13077360;22;20196;-72
2021/06/01 22:58:30;;;;;;;5.20;3.40;;;;;;;;;;13095769;22;20193;-72
2021/06/01 23:03:38;;;;;;;4.23;3.10;;;;;;;;;;13096049;22;20200;-72
2021/06/01 23:08:44;;;;;;;5.30;3.20;;;;;;;;;;13074589;22;20232;-72
2021/06/01 23:13:54;;;;;;;4.50;3.20;;;;;;;;;;13097862;22;20174;-73
2021/06/01 23:18:56;;;;;;;5.43;3.20;;;;;;;;;;13093903;22;20204;-72
2021/06/01 23:23:59;;;;;;;4.73;3.03;;;;;;;;;;13076246;22;20188;-73
2021/06/01 23:29:04;;;;;;;6.43;3.20;;;;;;;;;;13073183;22;20661;-72
2021/06/01 23:34:06;;;;;;;4.00;3.10;;;;;;;;;;13073017;22;20177;-74
2021/06/01 23:39:11;;;;;;;4.77;3.40;;;;;;;;;;13071688;22;20701;-74
2021/06/01 23:44:15;;;;;;;4.57;3.30;;;;;;;;;;13074540;22;20177;-72
2021/06/01 23:54:38;;;;;;;4.80;3.10;;;;;;;;;;13081010;22;20573;-72
2021/06/01 23:59:42;;;;;;;6.20;3.20;;;;;;;;;;13074921;22;20560;-74
